Time;durP1;ratioP1;P1;durP2;ratioP2;P2;SDS_P1;SDS_P2;PMS_P1;PMS_P2;Temp;Humidity;BMP_temperature;BMP_pressure;BME280_temperature;BME280_humidity;BME280_pressure;Samples;Min_cycle;Max_cycle;Signal;HPM_P1;HPM_P2
2022/07/23 00:01:35;;;;;;;11.02;5.35;;;;;;;24.07;61.95;98879.13;5106924;27;20518;-78
2022/07/23 00:04:02;;;;;;;6.75;5.07;;;;;;;24.03;61.13;98867.75;5107988;28;20399;-78
2022/07/23 00:06:28;;;;;;;11.70;5.47;;;;;;;23.95;61.73;98852.50;5105058;28;20054;-79
2022/07/23 00:08:55;;;;;;;10.75;4.63;;;;;;;24.05;60.15;98873.84;5112134;27;20055;-78
2022/07/23 00:11:30;;;;;;;9.15;4.90;;;;;;;24.05;59.82;98873.84;5107721;27;20044;-79
2022/07/23 00:13:58;;;;;;;7.93;4.70;;;;;;;24.10;59.96;98882.16;5109853;28;20495;-78
2022/07/23 00:16:24;;;;;;;5.32;4.60;;;;;;;24.13;60.05;98875.22;5100685;27;20051;-78
2022/07/23 00:18:51;;;;;;;6.20;4.40;;;;;;;24.07;59.26;98859.69;5102531;28;20052;-78
2022/07/23 00:21:18;;;;;;;6.50;3.97;;;;;;;24.05;59.06;98848.84;5108897;28;20039;-79
2022/07/23 00:23:44;;;;;;;5.63;4.13;;;;;;;24.08;59.57;98858.56;5105732;27;20205;-79
2022/07/23 00:26:11;;;;;;;6.03;4.60;;;;;;;24.00;59.25;98862.75;5109716;28;20050;-78
2022/07/23 00:28:37;;;;;;;5.50;4.22;;;;;;;24.01;59.00;98862.47;5111373;28;20051;-79
2022/07/23 00:31:05;;;;;;;5.60;4.07;;;;;;;23.93;59.58;98868.59;5107800;28;20128;-79
2022/07/23 00:33:32;;;;;;;6.03;4.13;;;;;;;23.91;57.20;98867.19;5105273;27;20054;-79
2022/07/23 00:35:58;;;;;;;6.07;4.07;;;;;;;24.05;56.68;98859.97;5110219;27;20070;-79
2022/07/23 00:38:25;;;;;;;5.90;4.00;;;;;;;24.00;56.65;98846.91;5112391;27;20044;-79
2022/07/23 00:40:51;;;;;;;6.80;3.53;;;;;;;23.94;56.19;98836.13;5110459;28;20055;-79
2022/07/23 00:43:21;;;;;;;6.88;3.45;;;;;;;24.07;56.75;98837.47;5108437;27;20076;-79
2022/07/23 00:45:47;;;;;;;6.75;4.25;;;;;;;23.95;57.60;98846.94;5102470;28;20047;-79
2022/07/23 00:48:15;;;;;;;4.82;3.60;;;;;;;23.87;57.80;98847.50;5111966;27;20078;-79
2022/07/23 00:50:42;;;;;;;4.47;3.72;;;;;;;23.77;58.53;98851.09;5108812;28;20054;-79
2022/07/23 00:53:09;;;;;;;5.75;3.60;;;;;;;23.75;58.59;98841.38;5108282;27;20059;-79
2022/07/23 00:55:35;;;;;;;4.45;3.28;;;;;;;23.68;58.33;98827.78;5110889;28;20035;-79
2022/07/23 00:58:03;;;;;;;7.60;4.25;;;;;;;23.68;57.82;98825.84;5109906;28;20051;-78
2022/07/23 01:00:30;;;;;;;4.50;4.10;;;;;;;23.69;58.21;98823.91;5095004;28;20035;-79
2022/07/23 01:02:56;;;;;;;4.38;3.58;;;;;;;23.64;58.23;98840.56;5109307;28;20074;-78
2022/07/23 01:05:25;;;;;;;6.22;3.30;;;;;;;23.59;58.93;98844.19;5109665;27;20051;-79
2022/07/23 01:07:51;;;;;;;5.47;3.72;;;;;;;23.57;58.63;98854.72;5109992;28;20105;-78
2022/07/23 01:10:34;;;;;;;9.25;3.58;;;;;;;23.38;58.14;98832.28;5104751;28;20054;-79
2022/07/23 01:13:02;;;;;;;5.15;3.35;;;;;;;23.50;57.81;98854.16;5106045;27;20051;-79
2022/07/23 01:15:29;;;;;;;4.28;3.22;;;;;;;23.62;59.01;98859.44;5104145;28;20054;-78
2022/07/23 01:17:55;;;;;;;5.95;4.05;;;;;;;23.41;60.28;98847.50;5109557;27;20055;-79
2022/07/23 01:20:22;;;;;;;4.78;3.60;;;;;;;23.26;61.17;98823.38;5106462;28;20044;-79
2022/07/23 01:22:50;;;;;;;5.95;4.00;;;;;;;23.24;60.53;98847.78;5104158;28;20059;-78
2022/07/23 01:25:17;;;;;;;5.53;3.63;;;;;;;23.38;60.03;98843.38;5107082;27;20046;-79
2022/07/23 01:27:44;;;;;;;4.00;3.40;;;;;;;23.25;61.42;98821.72;5112489;27;20051;-79
2022/07/23 01:30:11;;;;;;;5.68;4.22;;;;;;;23.00;63.05;98812.22;5113076;28;20051;-78
2022/07/23 01:32:38;;;;;;;4.60;3.70;;;;;;;22.98;64.89;98842.16;5115756;27;20050;-78
2022/07/23 01:35:05;;;;;;;5.03;4.03;;;;;;;22.94;65.52;98836.34;5112543;28;20055;-78
2022/07/23 01:37:32;;;;;;;4.50;3.28;;;;;;;22.75;64.89;98813.88;5108779;28;20070;-78
2022/07/23 01:40:00;;;;;;;4.38;3.38;;;;;;;22.81;63.69;98823.03;5106727;28;20064;-79
2022/07/23 01:42:27;;;;;;;8.90;3.60;;;;;;;22.53;66.23;98797.44;5097785;27;20055;-79
2022/07/23 01:44:53;;;;;;;3.78;3.05;;;;;;;22.43;67.11;98780.78;5107924;28;20044;-77
2022/07/23 01:47:20;;;;;;;6.07;4.05;;;;;;;22.37;68.21;98804.91;5107131;27;20047;-77
2022/07/23 01:49:46;;;;;;;5.22;3.75;;;;;;;22.35;67.27;98815.38;5104555;28;20047;-78
2022/07/23 01:52:13;;;;;;;4.10;3.63;;;;;;;22.44;65.75;98807.41;5108494;28;20052;-78
2022/07/23 01:54:39;;;;;;;7.15;3.70;;;;;;;22.43;65.80;98816.78;5107103;28;20168;-78
2022/07/23 01:57:08;;;;;;;5.07;3.47;;;;;;;22.51;67.65;98835.69;5104928;28;20051;-77
2022/07/23 01:59:35;;;;;;;6.82;3.50;;;;;;;22.38;68.06;98819.56;5109997;27;20047;-78
2022/07/23 02:02:03;;;;;;;6.53;3.72;;;;;;;22.28;68.21;98812.84;5105324;28;20051;-78
2022/07/23 02:04:30;;;;;;;4.10;3.70;;;;;;;22.22;69.09;98822.25;5109481;27;20054;-78
2022/07/23 02:06:56;;;;;;;4.85;4.00;;;;;;;22.35;68.69;98836.72;5101940;28;20059;-78
2022/07/23 02:09:23;;;;;;;5.63;3.97;;;;;;;22.20;68.85;98829.97;5110796;28;20055;-77
2022/07/23 02:11:50;;;;;;;7.10;3.85;;;;;;;22.11;70.35;98842.66;5103843;28;20647;-77
2022/07/23 02:14:18;;;;;;;8.73;3.90;;;;;;;22.15;72.22;98849.34;5103483;27;20048;-77
2022/07/23 02:16:44;;;;;;;4.53;3.33;;;;;;;21.95;72.99;98855.59;5111913;28;20052;-78
2022/07/23 02:19:11;;;;;;;5.75;4.38;;;;;;;21.89;73.36;98864.97;5110712;28;20044;-77
2022/07/23 02:21:37;;;;;;;7.50;4.13;;;;;;;21.65;72.52;98845.97;5104624;28;20076;-77
2022/07/23 02:24:05;;;;;;;4.15;3.60;;;;;;;21.69;71.33;98847.13;5111106;28;20051;-78
2022/07/23 02:26:34;;;;;;;6.65;4.18;;;;;;;21.51;73.35;98819.88;5111296;28;20372;-77
2022/07/23 02:29:01;;;;;;;6.63;3.93;;;;;;;21.53;71.45;98842.56;5111790;28;20055;-78
2022/07/23 02:31:29;;;;;;;4.80;3.47;;;;;;;21.41;71.66;98831.66;5113231;28;20052;-77
2022/07/23 02:33:55;;;;;;;7.22;4.13;;;;;;;21.39;71.75;98858.72;5108841;27;20046;-78
2022/07/23 02:36:22;;;;;;;4.13;3.72;;;;;;;21.63;70.56;98894.34;5110942;28;20059;-78
2022/07/23 02:38:48;;;;;;;6.55;4.22;;;;;;;21.55;69.84;98877.16;5126298;27;20053;-78
2022/07/23 02:41:15;;;;;;;9.23;4.30;;;;;;;21.65;70.18;98884.72;5108981;27;20044;-77
2022/07/23 02:43:44;;;;;;;5.53;3.70;;;;;;;21.86;69.93;98918.03;5090890;28;20056;-77
2022/07/23 02:46:10;;;;;;;4.13;3.72;;;;;;;21.74;70.29;98887.81;5103737;27;20051;-77
2022/07/23 02:48:39;;;;;;;8.23;3.72;;;;;;;21.76;70.97;98898.63;5109989;28;20059;-77
2022/07/23 02:51:05;;;;;;;6.78;3.88;;;;;;;21.57;71.04;98885.19;5109678;28;20410;-77
2022/07/23 02:53:32;;;;;;;4.85;3.83;;;;;;;21.80;70.95;98903.34;5104972;28;20043;-78
2022/07/23 02:55:58;;;;;;;6.05;3.55;;;;;;;21.57;72.46;98890.72;5105429;28;20403;-77
2022/07/23 02:58:26;;;;;;;5.10;3.92;;;;;;;21.61;73.33;98927.81;5111320;28;20062;-77
2022/07/23 03:00:52;;;;;;;4.40;3.92;;;;;;;21.43;73.38;98903.28;5105806;28;20046;-77
2022/07/23 03:03:19;;;;;;;6.35;4.10;;;;;;;21.28;73.62;98907.56;5090570;28;20525;-78
2022/07/23 03:05:47;;;;;;;4.63;3.83;;;;;;;21.38;74.31;98902.13;5103499;28;20048;-77
2022/07/23 03:08:14;;;;;;;4.75;3.38;;;;;;;21.36;75.05;98900.72;5104846;28;20052;-77
2022/07/23 03:10:40;;;;;;;5.03;3.70;;;;;;;21.20;76.89;98902.53;5110740;27;20047;-77
2022/07/23 03:13:07;;;;;;;4.80;3.92;;;;;;;21.16;77.59;98917.94;5101974;28;20495;-77
2022/07/23 03:15:33;;;;;;;4.55;3.53;;;;;;;21.06;77.66;98921.44;5111164;28;20052;-77
2022/07/23 03:18:00;;;;;;;4.90;4.22;;;;;;;21.15;76.85;98919.91;5111246;28;20145;-78
2022/07/23 03:20:26;;;;;;;4.30;3.83;;;;;;;21.30;75.90;98940.47;5110024;28;20047;-77
2022/07/23 03:22:54;;;;;;;6.47;4.10;;;;;;;21.08;74.16;98910.16;5106222;28;20049;-77
2022/07/23 03:25:21;;;;;;;6.43;4.10;;;;;;;21.40;73.80;98930.34;5101692;28;20052;-77
2022/07/23 03:27:47;;;;;;;6.57;4.25;;;;;;;21.14;74.34;98918.22;5106134;28;20044;-78
2022/07/23 03:30:14;;;;;;;8.25;4.47;;;;;;;21.26;73.89;98936.56;5110713;28;20063;-77
2022/07/23 03:32:40;;;;;;;5.22;3.80;;;;;;;21.40;73.50;98944.19;5132890;27;20047;-77
2022/07/23 03:35:08;;;;;;;6.63;4.38;;;;;;;21.40;73.66;98933.13;5119355;27;20055;-77
2022/07/23 03:37:35;;;;;;;7.57;3.88;;;;;;;21.29;74.71;98930.53;5115374;28;20097;-77
2022/07/23 03:40:03;;;;;;;7.55;4.45;;;;;;;21.07;74.98;98914.00;5110602;28;20517;-78
2022/07/23 03:42:29;;;;;;;5.00;3.80;;;;;;;21.18;75.17;98941.47;5111484;27;20506;-77
2022/07/23 03:44:56;;;;;;;4.40;3.92;;;;;;;21.12;75.14;98922.31;5113591;27;20063;-77
2022/07/23 03:47:22;;;;;;;4.68;3.45;;;;;;;21.10;75.49;98910.72;5114440;28;20043;-77
2022/07/23 03:49:49;;;;;;;4.32;3.53;;;;;;;21.06;75.67;98915.06;5114595;28;20048;-77
2022/07/23 03:52:16;;;;;;;7.15;4.00;;;;;;;21.06;76.34;98918.66;5121749;27;20047;-77
2022/07/23 03:54:42;;;;;;;6.22;3.88;;;;;;;21.18;76.74;98951.69;5114516;28;20055;-78
2022/07/23 03:57:10;;;;;;;5.68;3.97;;;;;;;21.12;76.42;98952.72;5112960;28;20081;-78
2022/07/23 03:59:37;;;;;;;6.28;3.80;;;;;;;21.19;76.69;98948.66;5112086;27;20043;-78
2022/07/23 04:02:03;;;;;;;4.13;3.50;;;;;;;21.02;77.36;98923.06;5120692;27;20047;-78
2022/07/23 04:05:09;;;;;;;6.75;3.53;;;;;;;21.22;77.25;98948.13;5115498;27;20055;-78
2022/07/23 04:07:35;;;;;;;5.90;3.72;;;;;;;21.24;77.86;98944.28;5101218;28;20145;-78
2022/07/23 04:10:02;;;;;;;4.75;3.95;;;;;;;21.18;83.71;98943.41;5109526;28;20528;-78
2022/07/23 04:12:30;;;;;;;5.50;3.88;;;;;;;21.24;82.12;98955.34;5119460;27;20054;-78
2022/07/23 04:14:56;;;;;;;6.43;4.05;;;;;;;21.12;81.13;98927.84;5123875;27;20459;-78
2022/07/23 04:17:26;;;;;;;5.63;3.70;;;;;;;21.14;81.01;98945.03;5107510;27;20122;-78
2022/07/23 04:19:53;;;;;;;6.05;4.30;;;;;;;21.25;81.69;98951.50;5102052;28;20044;-78
2022/07/23 04:22:19;;;;;;;5.20;3.80;;;;;;;21.10;83.77;98930.06;5100406;27;20066;-78
2022/07/23 04:24:46;;;;;;;5.40;3.35;;;;;;;21.13;84.31;98954.41;5113216;28;20070;-78
2022/07/23 04:27:12;;;;;;;6.32;3.92;;;;;;;21.10;84.59;98954.94;5114103;28;20048;-78
2022/07/23 04:29:40;;;;;;;4.80;3.90;;;;;;;20.97;83.23;98934.91;5114016;28;20464;-78
2022/07/23 04:32:07;;;;;;;4.70;3.72;;;;;;;21.16;84.56;98951.13;5118257;27;20056;-78
2022/07/23 04:34:33;;;;;;;5.05;4.18;;;;;;;21.24;85.84;98958.94;5113709;28;20039;-78
2022/07/23 04:37:00;;;;;;;4.45;3.95;;;;;;;21.18;85.54;98947.00;5114346;27;20054;-78
2022/07/23 04:39:26;;;;;;;6.15;3.78;;;;;;;21.15;82.77;98950.31;5128349;27;20047;-78
2022/07/23 04:41:53;;;;;;;5.72;3.88;;;;;;;21.24;82.10;98941.53;5134623;27;20043;-77
2022/07/23 04:44:19;;;;;;;5.68;3.60;;;;;;;21.23;79.81;98940.69;5126983;27;20047;-78
2022/07/23 04:46:47;;;;;;;5.72;3.75;;;;;;;21.47;78.60;98968.88;5117837;27;20047;-78
2022/07/23 04:49:14;;;;;;;5.82;4.07;;;;;;;21.52;80.24;98968.94;5110410;28;20047;-77
2022/07/23 04:51:40;;;;;;;5.28;4.00;;;;;;;21.46;82.90;98961.66;5106787;28;20051;-79
2022/07/23 04:54:07;;;;;;;4.47;3.45;;;;;;;21.35;84.72;98965.44;5111838;28;20055;-79
2022/07/23 04:56:33;;;;;;;4.68;3.63;;;;;;;21.21;85.32;98942.88;5113640;28;20055;-77
2022/07/23 04:59:02;;;;;;;5.40;3.85;;;;;;;21.36;85.66;98956.03;5110497;28;20047;-78
2022/07/23 05:01:29;;;;;;;8.88;5.25;;;;;;;21.35;82.12;98962.66;5105276;28;20486;-78
2022/07/23 05:03:56;;;;;;;5.28;4.00;;;;;;;21.70;80.74;98989.03;5113008;28;20051;-78
2022/07/23 05:06:23;;;;;;;4.25;3.75;;;;;;;21.66;79.96;98966.56;5113987;28;20134;-79
2022/07/23 05:08:50;;;;;;;4.78;3.88;;;;;;;21.97;80.23;99000.06;5102883;28;20158;-79
2022/07/23 05:11:16;;;;;;;7.90;4.05;;;;;;;22.06;79.02;98997.66;5112663;27;20474;-79
2022/07/23 05:13:43;;;;;;;5.22;3.78;;;;;;;22.12;78.21;98985.50;5112740;28;20407;-78
2022/07/23 05:16:09;;;;;;;4.13;3.65;;;;;;;21.97;80.58;98983.47;5113271;28;20071;-79
2022/07/23 05:18:36;;;;;;;4.95;3.70;;;;;;;22.08;82.60;98985.19;5113097;28;20479;-78
2022/07/23 05:21:17;;;;;;;5.07;3.97;;;;;;;22.33;80.36;98964.38;5112800;27;20522;-79
2022/07/23 05:23:43;;;;;;;5.90;4.10;;;;;;;22.59;77.10;98984.72;5107210;27;20051;-78
2022/07/23 05:26:11;;;;;;;5.38;3.80;;;;;;;22.90;74.29;98976.59;5120004;27;20055;-79
2022/07/23 05:28:38;;;;;;;4.85;3.90;;;;;;;22.82;73.64;98973.50;5104371;27;20036;-78
2022/07/23 05:31:05;;;;;;;5.75;3.67;;;;;;;23.14;73.68;98993.63;5103609;28;20039;-78
2022/07/23 05:33:31;;;;;;;7.20;4.60;;;;;;;23.14;72.00;98976.16;5112491;28;20058;-78
2022/07/23 05:36:01;;;;;;;10.32;6.25;;;;;;;23.25;70.33;98980.59;5110487;28;20036;-78
2022/07/23 05:38:29;;;;;;;8.05;4.60;;;;;;;23.80;66.91;98981.00;5111433;28;20126;-78
2022/07/23 05:40:56;;;;;;;5.25;3.95;;;;;;;23.76;67.86;98987.38;5111511;27;20495;-78
2022/07/23 05:43:26;;;;;;;9.02;4.82;;;;;;;23.41;73.19;98995.38;5112066;28;20043;-79
2022/07/23 05:45:53;;;;;;;8.05;4.68;;;;;;;23.27;79.85;99014.44;5112299;28;20040;-78
2022/07/23 05:48:20;;;;;;;7.80;4.68;;;;;;;22.97;77.94;99032.63;5112676;28;20048;-78
2022/07/23 05:50:47;;;;;;;4.75;4.25;;;;;;;22.79;80.61;99019.19;5102193;28;20039;-78
2022/07/23 05:53:14;;;;;;;9.05;4.43;;;;;;;22.73;77.48;99028.59;5110048;28;20047;-78
2022/07/23 05:55:42;;;;;;;13.45;5.55;;;;;;;22.58;80.81;99021.88;5111491;27;20051;-78
2022/07/23 05:58:08;;;;;;;9.50;4.80;;;;;;;22.56;82.88;99023.22;5112380;28;20051;-78
2022/07/23 06:00:35;;;;;;;5.53;4.53;;;;;;;22.33;85.84;99038.31;5112389;28;20075;-78
2022/07/23 06:03:02;;;;;;;7.65;4.97;;;;;;;22.48;90.73;99057.81;5111158;27;20047;-78
2022/07/23 06:05:28;;;;;;;5.47;4.38;;;;;;;22.20;90.08;99064.47;5105448;28;20054;-79
2022/07/23 06:07:55;;;;;;;6.97;4.63;;;;;;;22.09;92.04;99069.09;5104388;28;20051;-78
2022/07/23 06:10:22;;;;;;;5.88;4.70;;;;;;;22.06;94.87;99062.13;5115437;27;20039;-78
2022/07/23 06:12:50;;;;;;;5.82;4.88;;;;;;;22.03;99.18;99067.38;5115325;27;20043;-78
2022/07/23 06:15:16;;;;;;;6.30;4.85;;;;;;;21.78;96.77;99065.19;5112594;28;20182;-78
2022/07/23 06:17:43;;;;;;;7.40;5.30;;;;;;;21.60;100.00;99039.53;5112960;28;20051;-77
2022/07/23 06:20:10;;;;;;;9.40;5.10;;;;;;;21.41;90.36;99030.75;5111717;28;20055;-78
2022/07/23 06:22:37;;;;;;;7.43;5.65;;;;;;;21.52;86.84;99045.56;5102570;28;20048;-77
2022/07/23 06:25:04;;;;;;;10.70;6.00;;;;;;;21.47;94.33;99020.56;5107318;28;20047;-77
2022/07/23 06:27:31;;;;;;;7.15;5.55;;;;;;;21.43;84.51;99036.84;5103981;28;20047;-77
2022/07/23 06:29:59;;;;;;;9.13;6.13;;;;;;;21.50;98.58;99006.28;5111431;28;20051;-77
2022/07/23 06:32:25;;;;;;;7.60;6.68;;;;;;;21.27;97.98;98993.53;5111169;28;20055;-77
2022/07/23 06:34:52;;;;;;;9.80;6.60;;;;;;;21.40;94.64;98996.72;5112444;27;20398;-77
2022/07/23 06:37:18;;;;;;;9.63;6.57;;;;;;;21.50;93.70;99012.63;5108100;27;20043;-77
2022/07/23 06:39:45;;;;;;;9.43;6.60;;;;;;;21.61;88.85;99027.38;5107159;27;20058;-77
2022/07/23 06:42:12;;;;;;;10.20;6.50;;;;;;;21.61;90.08;99040.41;5109501;27;20381;-77
2022/07/23 06:44:38;;;;;;;8.88;6.78;;;;;;;21.64;89.85;99029.63;5113158;27;20047;-78
2022/07/23 06:47:06;;;;;;;13.35;7.13;;;;;;;21.96;91.10;99062.03;5103767;28;20051;-78
2022/07/23 06:49:33;;;;;;;9.50;6.85;;;;;;;21.96;89.12;99055.66;5110786;28;20044;-78
2022/07/23 06:51:59;;;;;;;9.57;7.13;;;;;;;21.72;86.47;99033.84;5110912;27;20052;-78
2022/07/23 06:54:26;;;;;;;15.52;8.32;;;;;;;21.55;92.39;99031.19;5110842;28;20051;-78
2022/07/23 06:56:53;;;;;;;12.82;7.10;;;;;;;21.56;92.63;99043.94;5110012;28;20498;-78
2022/07/23 06:59:19;;;;;;;10.90;7.50;;;;;;;21.60;90.61;99053.38;5111114;28;20070;-79
2022/07/23 07:01:46;;;;;;;9.45;7.60;;;;;;;21.74;92.42;99098.09;5110931;28;20044;-78
2022/07/23 07:04:14;;;;;;;10.68;7.47;;;;;;;21.61;93.39;99102.06;5109543;28;20047;-78
2022/07/23 07:06:41;;;;;;;7.80;6.65;;;;;;;21.45;98.45;99127.84;5102877;28;20056;-78
2022/07/23 07:09:08;;;;;;;8.63;7.18;;;;;;;21.00;97.79;99129.72;5110541;28;20420;-79
2022/07/23 07:11:34;;;;;;;11.43;6.85;;;;;;;20.91;99.69;99132.09;5098221;28;20040;-78
2022/07/23 07:14:01;;;;;;;10.60;7.40;;;;;;;20.67;100.00;99136.97;5109501;28;20039;-78
2022/07/23 07:16:38;;;;;;;;;;;;;;;;;;;;;
2022/07/23 07:19:05;;;;;;;11.20;7.22;;;;;;;20.33;100.00;99126.72;5090785;28;20051;-78
2022/07/23 07:22:05;;;;;;;10.65;7.75;;;;;;;20.54;100.00;99153.88;5114006;28;20479;-78
2022/07/23 07:24:33;;;;;;;;;;;;;;;20.50;100.00;99137.78;5097114;28;20047;-78
2022/07/23 07:26:59;;;;;;;8.98;6.93;;;;;;;19.83;100.00;99101.81;5109701;28;19920;-78
2022/07/23 07:29:26;;;;;;;9.50;6.85;;;;;;;20.10;100.00;99124.94;5091780;28;20048;-78
2022/07/23 07:31:53;;;;;;;12.15;7.50;;;;;;;19.99;100.00;99084.44;5110645;28;20494;-79
2022/07/23 07:34:19;;;;;;;11.43;7.53;;;;;;;20.08;100.00;99105.06;5105893;28;20059;-78
2022/07/23 07:36:46;;;;;;;9.88;7.22;;;;;;;19.98;100.00;99091.06;5109189;28;20043;-79
2022/07/23 07:39:14;;;;;;;12.93;7.60;;;;;;;19.60;100.00;99048.41;5115173;28;20067;-79
2022/07/23 07:41:42;;;;;;;11.15;7.30;;;;;;;19.70;100.00;99067.91;5115691;28;20079;-79
2022/07/23 07:44:09;;;;;;;10.40;7.53;;;;;;;19.77;100.00;99063.09;5115010;28;20056;-77
2022/07/23 07:46:35;;;;;;;12.68;6.95;;;;;;;19.94;100.00;99065.88;5111039;28;20055;-78
2022/07/23 07:49:02;;;;;;;11.05;7.68;;;;;;;20.16;100.00;99085.31;5100424;28;20056;-79
2022/07/23 07:51:28;;;;;;;13.35;7.68;;;;;;;20.32;100.00;99077.28;5094160;28;20043;-78
2022/07/23 07:53:55;;;;;;;12.52;8.57;;;;;;;20.55;100.00;99079.06;5118407;27;20131;-78
2022/07/23 07:56:21;;;;;;;10.73;7.80;;;;;;;20.71;100.00;99084.81;5109495;28;20048;-78
2022/07/23 07:58:49;;;;;;;14.73;8.02;;;;;;;20.72;100.00;99078.22;5109814;28;20479;-78
2022/07/23 08:01:16;;;;;;;12.88;7.88;;;;;;;20.90;100.00;99077.94;5107521;28;20702;-78
2022/07/23 08:03:43;;;;;;;10.45;7.80;;;;;;;21.29;100.00;99086.19;5102130;28;20214;-79
2022/07/23 08:06:10;;;;;;;10.25;7.30;;;;;;;21.64;100.00;99109.03;5109654;28;20051;-78
2022/07/23 08:08:37;;;;;;;11.20;7.68;;;;;;;21.59;100.00;99100.66;5102494;28;20039;-80
2022/07/23 08:11:03;;;;;;;9.70;7.68;;;;;;;21.59;100.00;99112.56;5106549;28;20055;-78
2022/07/23 08:13:30;;;;;;;13.43;8.05;;;;;;;21.61;100.00;99098.47;5124421;27;20047;-79
2022/07/23 08:15:57;;;;;;;9.88;7.97;;;;;;;21.42;100.00;99101.53;5114249;28;20055;-79
2022/07/23 08:18:24;;;;;;;8.80;7.90;;;;;;;21.45;100.00;99111.25;5110171;28;20051;-79
2022/07/23 08:20:51;;;;;;;15.65;8.48;;;;;;;21.35;100.00;99112.81;5113565;28;20051;-79
2022/07/23 08:23:19;;;;;;;14.55;8.55;;;;;;;21.24;100.00;99116.50;5112526;27;20048;-79
2022/07/23 08:25:47;;;;;;;10.02;8.13;;;;;;;21.19;100.00;99103.47;5113514;27;20406;-78
2022/07/23 08:28:15;;;;;;;11.02;7.63;;;;;;;21.14;100.00;99122.75;5114329;28;20047;-79
2022/07/23 08:30:43;;;;;;;10.43;8.63;;;;;;;20.91;100.00;99114.66;5111054;27;20054;-79
2022/07/23 08:33:13;;;;;;;11.52;8.40;;;;;;;20.86;100.00;99124.56;5112580;28;20052;-78
2022/07/23 08:35:42;;;;;;;11.73;8.35;;;;;;;20.82;100.00;99115.13;5106058;27;20048;-79
2022/07/23 08:38:11;;;;;;;11.38;8.63;;;;;;;20.92;100.00;99128.22;5113309;28;20096;-78
2022/07/23 08:40:40;;;;;;;10.38;7.93;;;;;;;20.90;100.00;99115.78;5106732;28;20044;-79
2022/07/23 08:43:08;;;;;;;11.98;8.18;;;;;;;21.02;100.00;99141.38;5105574;28;20059;-79
2022/07/23 08:45:37;;;;;;;11.82;7.93;;;;;;;21.04;100.00;99119.84;5101146;28;20055;-78
2022/07/23 08:48:05;;;;;;;7.90;6.97;;;;;;;21.17;100.00;99129.72;5113072;28;20482;-79
2022/07/23 08:50:36;;;;;;;9.55;7.60;;;;;;;21.37;100.00;99142.97;5102522;28;20048;-79
2022/07/23 08:53:03;;;;;;;9.45;6.68;;;;;;;21.33;100.00;99136.25;5112228;28;20043;-78
2022/07/23 08:55:30;;;;;;;11.05;7.15;;;;;;;21.53;100.00;99168.94;5107615;28;20047;-78
2022/07/23 08:57:56;;;;;;;12.93;7.13;;;;;;;21.64;100.00;99156.88;5113432;28;20495;-79
2022/07/23 09:00:23;;;;;;;12.43;6.72;;;;;;;21.36;100.00;99125.53;5109541;28;20052;-79
2022/07/23 09:02:50;;;;;;;9.85;6.95;;;;;;;21.46;100.00;99112.94;5104297;28;20032;-78
2022/07/23 09:05:18;;;;;;;8.95;7.57;;;;;;;21.86;100.00;99123.66;5111861;28;20054;-79
2022/07/23 09:08:09;;;;;;;7.85;6.88;;;;;;;22.08;100.00;99134.66;5108157;28;20043;-78
2022/07/23 09:10:46;;;;;;;9.75;7.07;;;;;;;22.54;96.43;99136.25;5107444;28;20040;-78
2022/07/23 09:13:28;;;;;;;15.40;6.60;;;;;;;22.53;93.49;99121.53;5109771;28;20048;-78
2022/07/23 09:15:56;;;;;;;9.95;6.55;;;;;;;22.72;90.32;99123.91;5103858;28;20046;-77
2022/07/23 09:18:29;;;;;;;7.60;6.05;;;;;;;22.98;92.07;99125.72;5113676;27;20130;-78
2022/07/23 09:21:06;;;;;;;9.93;6.80;;;;;;;23.09;88.34;99123.88;5115004;27;20052;-77
2022/07/23 09:23:39;;;;;;;10.35;6.45;;;;;;;23.07;86.03;99133.56;5107898;28;20388;-77
2022/07/23 09:26:18;;;;;;;12.85;6.45;;;;;;;23.29;85.50;99128.72;5107502;28;20104;-77
2022/07/23 09:28:52;;;;;;;6.63;5.50;;;;;;;23.70;82.09;99125.28;5108264;28;20046;-77
2022/07/23 09:31:19;;;;;;;9.43;5.82;;;;;;;23.70;81.35;99119.75;5109727;27;20139;-77
2022/07/23 09:33:45;;;;;;;8.32;5.68;;;;;;;23.89;79.71;99125.63;5104061;28;20040;-77
2022/07/23 09:36:13;;;;;;;8.38;6.00;;;;;;;23.82;80.60;99122.28;5105556;28;20527;-77
2022/07/23 09:38:49;;;;;;;7.18;5.82;;;;;;;24.24;78.40;99117.66;5102773;28;20449;-78
2022/07/23 09:41:16;;;;;;;7.47;5.18;;;;;;;24.68;84.51;99134.63;5109210;28;20056;-78
2022/07/23 09:43:42;;;;;;;7.28;6.13;;;;;;;24.47;75.13;99144.06;5109363;28;20055;-78
2022/07/23 09:46:20;;;;;;;7.78;5.03;;;;;;;24.62;70.22;99141.31;5107889;28;20055;-78
2022/07/23 09:48:47;;;;;;;8.50;4.85;;;;;;;24.69;69.55;99133.53;5102193;28;20127;-78
2022/07/23 09:51:14;;;;;;;7.03;5.00;;;;;;;24.97;72.02;99136.81;5110080;28;20052;-78
2022/07/23 09:53:41;;;;;;;6.47;5.18;;;;;;;25.34;69.29;99112.59;5108515;28;20046;-78
2022/07/23 09:56:10;;;;;;;7.03;4.93;;;;;;;25.75;65.03;99131.88;5107562;28;20399;-78
2022/07/23 09:58:45;;;;;;;6.68;4.70;;;;;;;25.83;67.18;99119.31;5109999;28;20055;-78
2022/07/23 10:01:13;;;;;;;7.28;4.70;;;;;;;25.42;64.54;99098.88;5108848;28;20131;-78
2022/07/23 10:03:41;;;;;;;8.07;5.20;;;;;;;25.74;66.53;99127.41;5103924;28;20036;-78
2022/07/23 10:06:09;;;;;;;6.43;4.80;;;;;;;25.46;62.99;99107.53;5102603;28;20521;-78
2022/07/23 10:08:36;;;;;;;7.80;5.10;;;;;;;25.59;66.47;99122.75;5105510;27;20496;-78
2022/07/23 10:11:03;;;;;;;6.97;5.03;;;;;;;25.62;65.98;99108.25;5107868;28;20517;-78
2022/07/23 10:16:27;;;;;;;5.97;4.85;;;;;;;25.68;62.68;99132.16;5046320;28;20418;-80
2022/07/23 10:18:53;;;;;;;8.23;4.70;;;;;;;26.00;64.29;99121.72;5088616;28;20044;-79
2022/07/23 10:21:28;;;;;;;5.20;4.65;;;;;;;26.01;60.55;99120.63;5109420;28;20055;-78
2022/07/23 10:24:10;;;;;;;8.45;5.10;;;;;;;26.33;60.09;99114.53;5099901;28;20044;-79
2022/07/23 10:26:45;;;;;;;6.88;4.85;;;;;;;26.05;61.93;99107.78;5106392;28;20047;-80
2022/07/23 10:29:25;;;;;;;7.88;4.50;;;;;;;26.48;61.81;99108.84;5104907;28;20055;-80
2022/07/23 10:31:59;;;;;;;10.00;4.70;;;;;;;26.71;60.89;99120.41;5103253;28;20044;-80
2022/07/23 10:34:35;;;;;;;8.65;5.00;;;;;;;26.66;61.87;99125.97;5101852;28;20048;-79
2022/07/23 10:37:13;;;;;;;8.85;5.20;;;;;;;26.69;63.29;99122.63;5108470;28;20058;-79
2022/07/23 10:39:39;;;;;;;6.93;4.97;;;;;;;26.82;62.41;99129.50;5109010;28;20097;-79
2022/07/23 10:42:10;;;;;;;6.70;5.10;;;;;;;26.65;59.40;99129.91;5106460;28;20514;-80
2022/07/23 10:44:49;;;;;;;7.65;5.25;;;;;;;26.95;59.75;99127.97;5099246;28;20130;-80
2022/07/23 10:47:39;;;;;;;8.73;4.95;;;;;;;27.26;60.09;99117.31;5109139;28;20518;-80
2022/07/23 10:50:20;;;;;;;6.28;4.55;;;;;;;27.43;56.75;99130.81;5101517;28;20420;-80
2022/07/23 10:53:25;;;;;;;7.68;4.35;;;;;;;27.35;53.78;99109.13;5101487;28;20058;-80
2022/07/23 10:55:53;;;;;;;7.38;4.90;;;;;;;27.51;54.25;99099.44;5081897;28;20059;-80
2022/07/23 10:58:23;;;;;;;5.57;4.07;;;;;;;27.64;54.50;99102.63;5105934;28;20063;-80
2022/07/23 11:00:50;;;;;;;;;;;;;;;27.87;52.87;99123.28;5106776;28;20054;-80
2022/07/23 11:03:36;;;;;;;5.68;4.05;;;;;;;27.84;53.31;99102.38;5107792;28;19926;-80
2022/07/23 11:06:04;;;;;;;5.22;4.40;;;;;;;27.73;54.16;99101.69;5107794;28;20104;-80
2022/07/23 11:08:30;;;;;;;10.00;4.47;;;;;;;27.87;51.16;99124.09;5102073;28;20116;-80
2022/07/23 11:11:10;;;;;;;4.40;3.72;;;;;;;27.46;50.40;99119.06;5100386;28;20051;-80
2022/07/23 11:13:42;;;;;;;7.28;4.15;;;;;;;27.32;50.33;99099.41;5108043;28;20479;-80
2022/07/23 11:16:24;;;;;;;5.90;3.75;;;;;;;27.66;49.67;99103.19;5107321;28;20609;-80
2022/07/23 11:19:04;;;;;;;5.82;4.57;;;;;;;28.06;47.27;99117.72;5107169;28;20487;-80
2022/07/23 11:21:44;;;;;;;7.60;3.58;;;;;;;28.29;46.51;99118.78;5099256;28;20054;-80
2022/07/23 11:24:13;;;;;;;7.70;4.10;;;;;;;28.44;46.27;99100.94;5092456;28;20040;-80
2022/07/23 11:26:49;;;;;;;4.65;3.60;;;;;;;28.81;47.67;99118.75;5100415;28;20135;-80
2022/07/23 11:29:44;;;;;;;5.40;3.92;;;;;;;28.55;46.90;99115.56;5108026;28;20044;-79
2022/07/23 11:32:38;;;;;;;4.43;3.78;;;;;;;28.17;49.13;99088.50;5107163;28;20044;-79
2022/07/23 11:35:20;;;;;;;10.23;4.05;;;;;;;28.75;48.55;99106.00;5122621;28;20104;-80
2022/07/23 11:37:47;;;;;;;5.68;4.10;;;;;;;29.15;46.83;99095.19;5099338;28;20051;-79
2022/07/23 11:40:16;;;;;;;5.35;4.40;;;;;;;29.33;45.55;99098.22;5102336;28;20043;-80
2022/07/23 11:42:53;;;;;;;7.20;4.80;;;;;;;28.82;46.92;99095.25;5101754;28;20503;-81